createdAt,value
2019-03-01T00:00:33.713Z,2.50
2019-03-01T00:03:06.669Z,2.40
2019-03-01T00:06:10.487Z,2.40
2019-03-01T00:09:17.039Z,2.40
2019-03-01T00:12:34.523Z,2.30
2019-03-01T00:15:34.222Z,2.30
2019-03-01T00:18:36.798Z,2.30
2019-03-01T00:21:40.053Z,2.20
2019-03-01T00:25:06.761Z,2.20
2019-03-01T00:28:14.053Z,2.20
2019-03-01T00:31:40.725Z,2.10
2019-03-01T00:34:51.371Z,2.10
2019-03-01T00:38:01.914Z,2.00
2019-03-01T00:41:10.828Z,2.00
2019-03-01T00:44:30.169Z,1.90
2019-03-01T00:47:01.968Z,1.90
2019-03-01T00:49:33.215Z,1.90
2019-03-01T00:52:03.580Z,1.90
2019-03-01T00:54:34.006Z,1.90
2019-03-01T00:57:05.187Z,1.80
2019-03-01T00:59:35.591Z,1.70
2019-03-01T01:02:06.421Z,1.70
2019-03-01T01:04:37.389Z,1.70
2019-03-01T01:07:09.856Z,1.60
2019-03-01T01:12:28.413Z,1.50
2019-03-01T01:14:58.996Z,1.50
2019-03-01T01:17:29.795Z,1.50
2019-03-01T01:20:00.479Z,1.40
2019-03-01T01:22:30.961Z,1.40
2019-03-01T01:25:01.766Z,1.40
2019-03-01T01:27:32.149Z,1.40
2019-03-01T01:30:02.576Z,1.30
2019-03-01T01:32:34.141Z,1.30
2019-03-01T01:35:04.933Z,1.30
2019-03-01T01:37:35.411Z,1.20
2019-03-01T01:40:06.531Z,1.20
2019-03-01T01:42:36.993Z,1.20
2019-03-01T01:45:08.102Z,1.20
2019-03-01T01:47:39.557Z,1.20
2019-03-01T01:50:10.537Z,1.10
2019-03-01T01:52:40.933Z,1.10
2019-03-01T01:55:11.381Z,1.10
2019-03-01T01:57:41.960Z,1.10
2019-03-01T02:00:12.982Z,1.00
2019-03-01T02:02:43.369Z,1.00
2019-03-01T02:05:13.877Z,1.00
2019-03-01T02:07:44.267Z,1.00
2019-03-01T02:10:14.698Z,1.00
2019-03-01T02:12:45.126Z,1.00
2019-03-01T02:15:16.149Z,0.90
2019-03-01T02:17:46.649Z,0.90
2019-03-01T02:20:17.076Z,0.90
2019-03-01T02:22:47.535Z,0.90
2019-03-01T02:25:17.945Z,0.90
2019-03-01T02:27:49.369Z,0.90
2019-03-01T02:30:22.490Z,0.90
2019-03-01T02:32:52.857Z,0.90
2019-03-01T02:35:25.017Z,0.90
2019-03-01T02:37:55.506Z,0.90
2019-03-01T02:40:26.177Z,0.80
2019-03-01T02:42:56.989Z,0.80
2019-03-01T02:45:28.162Z,0.80
2019-03-01T02:47:58.447Z,0.70
2019-03-01T02:50:29.426Z,0.70
2019-03-01T02:53:00.462Z,0.70
2019-03-01T02:55:31.171Z,0.70
2019-03-01T02:58:01.762Z,0.60
2019-03-01T03:00:32.566Z,0.70
2019-03-01T03:03:03.038Z,0.60
2019-03-01T03:05:35.880Z,0.60
2019-03-01T03:08:07.762Z,0.60
2019-03-01T03:10:38.230Z,0.60
2019-03-01T03:13:10.035Z,0.60
2019-03-01T03:15:43.285Z,0.60
2019-03-01T03:18:16.027Z,0.50
2019-03-01T03:20:46.502Z,0.50
2019-03-01T03:23:16.989Z,0.50
2019-03-01T03:25:47.394Z,0.40
2019-03-01T03:28:17.825Z,0.40
2019-03-01T03:30:48.243Z,0.40
2019-03-01T03:33:18.647Z,0.30
2019-03-01T03:35:49.199Z,0.30
2019-03-01T03:38:19.582Z,0.30
2019-03-01T03:40:49.915Z,0.40
2019-03-01T03:43:22.813Z,0.30
2019-03-01T03:45:53.490Z,0.40
2019-03-01T03:48:23.991Z,0.40
2019-03-01T03:50:54.448Z,0.40
2019-03-01T03:53:24.846Z,0.40
2019-03-01T03:55:55.257Z,0.40
2019-03-01T03:58:25.661Z,0.40
2019-03-01T04:00:56.085Z,0.40
2019-03-01T04:03:26.516Z,0.40
2019-03-01T04:05:56.917Z,0.50
2019-03-01T04:08:27.335Z,0.40
2019-03-01T04:10:57.760Z,0.40
2019-03-01T04:13:28.521Z,0.50
2019-03-01T04:15:58.876Z,0.40
2019-03-01T04:18:29.351Z,0.40
2019-03-01T04:21:01.200Z,0.40
2019-03-01T04:23:31.976Z,0.40
2019-03-01T04:26:02.631Z,0.40
2019-03-01T04:28:33.343Z,0.40
2019-03-01T04:31:05.022Z,0.40
2019-03-01T04:33:35.344Z,0.40
2019-03-01T04:36:05.739Z,0.40
2019-03-01T04:38:36.514Z,0.40
2019-03-01T04:41:06.969Z,0.40
2019-03-01T04:43:37.320Z,0.40
2019-03-01T04:46:08.008Z,0.40
2019-03-01T04:48:38.358Z,0.40
2019-03-01T04:51:10.372Z,0.30
2019-03-01T04:53:41.027Z,0.30
2019-03-01T04:56:15.847Z,0.30
2019-03-01T04:58:46.414Z,0.30
2019-03-01T05:01:16.804Z,0.30
2019-03-01T05:03:47.261Z,0.30
2019-03-01T05:06:17.740Z,0.30
2019-03-01T05:08:48.144Z,0.30
2019-03-01T05:11:18.543Z,0.40
2019-03-01T05:13:48.952Z,0.40
2019-03-01T05:16:19.388Z,0.40
2019-03-01T05:18:49.781Z,0.50
2019-03-01T05:21:20.223Z,0.50
2019-03-01T05:23:50.989Z,0.50
2019-03-01T05:26:21.418Z,0.50
2019-03-01T05:28:52.195Z,0.50
2019-03-01T05:31:22.590Z,0.50
2019-03-01T05:33:55.318Z,0.50
2019-03-01T05:36:25.454Z,0.50
2019-03-01T05:38:55.939Z,0.50
2019-03-01T05:41:26.492Z,0.60
2019-03-01T05:43:56.888Z,0.60
2019-03-01T05:46:27.663Z,0.60
2019-03-01T05:48:58.448Z,0.60
2019-03-01T05:51:29.020Z,0.60
2019-03-01T05:53:59.802Z,0.60
2019-03-01T05:56:30.261Z,0.70
2019-03-01T05:59:18.930Z,0.70
2019-03-01T06:02:11.545Z,0.70
2019-03-01T06:04:49.506Z,0.70
2019-03-01T06:08:00.841Z,0.70
2019-03-01T06:10:59.106Z,0.80
2019-03-01T06:13:51.266Z,0.80
2019-03-01T06:16:54.372Z,0.80
2019-03-01T06:19:58.950Z,0.90
2019-03-01T06:22:49.221Z,0.90
2019-03-01T06:25:35.651Z,1.00
2019-03-01T06:28:33.044Z,1.00
2019-03-01T06:31:59.665Z,1.00
2019-03-01T06:35:04.028Z,1.00
2019-03-01T06:38:12.736Z,1.00
2019-03-01T06:41:26.978Z,1.00
2019-03-01T06:44:56.806Z,1.10
2019-03-01T06:47:46.982Z,1.10
2019-03-01T06:50:46.208Z,1.10
2019-03-01T06:53:16.928Z,1.10
2019-03-01T06:56:07.148Z,1.10
2019-03-01T06:58:40.119Z,1.20
2019-03-01T07:01:13.936Z,1.20
2019-03-01T07:03:46.799Z,1.30
2019-03-01T07:09:06.722Z,1.40
2019-03-01T07:11:38.613Z,1.50
2019-03-01T07:14:09.206Z,1.50
2019-03-01T07:16:39.656Z,1.50
2019-03-01T07:19:10.031Z,1.50
2019-03-01T07:21:40.418Z,1.50
2019-03-01T07:24:10.830Z,1.50
2019-03-01T07:26:41.592Z,1.60
2019-03-01T07:29:12.000Z,1.70
2019-03-01T07:31:42.464Z,1.70
2019-03-01T07:34:14.442Z,1.90
2019-03-01T07:36:44.875Z,1.90
2019-03-01T07:39:15.464Z,1.90
2019-03-01T07:41:45.860Z,2.10
2019-03-01T07:44:16.354Z,2.20
2019-03-01T07:46:53.056Z,2.30
2019-03-01T07:49:18.885Z,2.40
2019-03-01T07:51:49.365Z,2.40
2019-03-01T07:54:22.231Z,2.40
2019-03-01T07:56:51.978Z,2.40
2019-03-01T07:59:23.959Z,2.40
2019-03-01T08:01:55.934Z,2.40
2019-03-01T08:04:28.864Z,2.40
2019-03-01T08:06:59.628Z,2.40
2019-03-01T08:09:30.028Z,2.40
2019-03-01T08:12:03.670Z,2.40
2019-03-01T08:14:35.946Z,2.40
2019-03-01T08:17:06.348Z,2.40
2019-03-01T08:19:36.752Z,2.50
2019-03-01T08:22:07.106Z,2.50
2019-03-01T08:24:38.886Z,2.60
2019-03-01T08:27:10.179Z,2.70
2019-03-01T08:29:41.446Z,2.90
2019-03-01T08:32:11.882Z,3.10
2019-03-01T08:34:42.342Z,3.30
2019-03-01T08:37:14.447Z,3.70
2019-03-01T08:39:44.700Z,4.10
2019-03-01T08:42:15.370Z,4.20
2019-03-01T08:44:45.808Z,4.20
2019-03-01T08:47:20.328Z,4.00
2019-03-01T08:49:48.219Z,3.90
2019-03-01T08:52:18.552Z,3.80
2019-03-01T08:54:48.946Z,3.70
2019-03-01T08:57:22.644Z,3.60
2019-03-01T08:59:51.657Z,3.70
2019-03-01T09:02:22.181Z,4.00
2019-03-01T09:04:52.712Z,4.30
2019-03-01T09:07:23.262Z,4.40
2019-03-01T09:09:57.162Z,4.50
2019-03-01T09:12:27.112Z,4.50
2019-03-01T09:14:57.621Z,4.70
2019-03-01T09:17:28.120Z,4.90
2019-03-01T09:20:00.186Z,5.10
2019-03-01T09:22:31.352Z,5.40
2019-03-01T09:25:07.483Z,5.80
2019-03-01T09:27:37.149Z,6.30
2019-03-01T09:30:11.498Z,6.50
2019-03-01T09:32:42.136Z,6.50
2019-03-01T09:35:29.639Z,6.40
2019-03-01T09:38:04.509Z,6.40
2019-03-01T09:40:33.700Z,6.40
2019-03-01T09:43:04.220Z,6.60
2019-03-01T09:45:36.488Z,6.60
2019-03-01T09:48:08.794Z,6.70
2019-03-01T09:50:39.260Z,6.60
2019-03-01T09:53:09.697Z,6.60
2019-03-01T09:55:40.238Z,6.80
2019-03-01T09:58:10.847Z,7.10
2019-03-01T10:00:43.368Z,7.30
2019-03-01T10:03:14.210Z,7.50
2019-03-01T10:05:44.748Z,7.70
2019-03-01T10:08:15.175Z,8.00
2019-03-01T10:10:45.631Z,8.30
2019-03-01T10:13:21.859Z,8.60
2019-03-01T10:15:57.832Z,8.40
2019-03-01T10:18:28.653Z,8.30
2019-03-01T10:20:59.212Z,8.30
2019-03-01T10:23:29.864Z,8.30
2019-03-01T10:28:50.434Z,8.30
2019-03-01T10:31:20.928Z,8.50
2019-03-01T10:33:51.560Z,8.60
2019-03-01T10:36:22.131Z,8.60
2019-03-01T10:38:52.553Z,8.60
2019-03-01T10:41:23.557Z,9.10
2019-03-01T10:43:54.096Z,9.40
2019-03-01T10:46:24.889Z,9.30
2019-03-01T10:48:55.404Z,9.20
2019-03-01T10:51:25.925Z,9.20
2019-03-01T10:53:56.363Z,9.30
2019-03-01T10:56:27.311Z,9.40
2019-03-01T10:58:58.467Z,9.00
2019-03-01T11:01:29.187Z,8.40
2019-03-01T11:03:59.693Z,8.00
2019-03-01T11:06:30.320Z,7.60
2019-03-01T11:09:01.117Z,7.30
2019-03-01T11:11:33.495Z,7.10
2019-03-01T11:14:04.076Z,6.90
2019-03-01T11:16:35.586Z,6.60
2019-03-01T11:19:05.969Z,6.50
2019-03-01T11:21:36.663Z,6.30
2019-03-01T11:24:07.072Z,6.40
2019-03-01T11:26:37.791Z,6.60
2019-03-01T11:29:08.610Z,6.80
2019-03-01T11:31:39.546Z,6.70
2019-03-01T11:34:11.357Z,6.50
2019-03-01T11:36:41.756Z,6.50
2019-03-01T11:39:14.023Z,6.60
2019-03-01T11:41:44.434Z,6.90
2019-03-01T11:44:15.019Z,7.40
2019-03-01T11:46:45.442Z,8.00
2019-03-01T11:49:15.893Z,8.20
2019-03-01T11:51:46.311Z,8.10
2019-03-01T11:54:16.781Z,7.80
2019-03-01T11:56:47.248Z,7.60
2019-03-01T11:59:17.752Z,7.50
2019-03-01T12:01:48.304Z,7.40
2019-03-01T12:04:19.001Z,7.40
2019-03-01T12:06:49.781Z,7.90
2019-03-01T12:09:20.285Z,8.50
2019-03-01T12:11:50.663Z,8.80
2019-03-01T12:14:22.292Z,8.60
2019-03-01T12:16:53.089Z,8.20
2019-03-01T12:19:23.825Z,8.30
2019-03-01T12:21:54.236Z,8.60
2019-03-01T12:24:24.717Z,8.60
2019-03-01T12:26:55.112Z,8.20
2019-03-01T12:29:25.592Z,7.70
2019-03-01T12:31:56.049Z,7.10
2019-03-01T12:34:27.475Z,6.70
2019-03-01T12:36:57.895Z,6.50
2019-03-01T12:39:28.356Z,6.40
2019-03-01T12:41:58.718Z,6.30
2019-03-01T12:44:29.574Z,6.20
2019-03-01T12:47:00.067Z,6.10
2019-03-01T12:49:30.496Z,6.00
2019-03-01T12:52:00.970Z,6.00
2019-03-01T12:54:31.815Z,6.20
2019-03-01T12:57:02.221Z,6.30
2019-03-01T12:59:32.691Z,6.30
2019-03-01T13:02:03.232Z,6.40
2019-03-01T13:04:34.143Z,6.30
2019-03-01T13:07:04.741Z,6.30
2019-03-01T13:09:35.653Z,6.30
2019-03-01T13:12:06.059Z,6.30
2019-03-01T13:14:36.829Z,6.40
2019-03-01T13:17:08.700Z,6.40
2019-03-01T13:19:39.267Z,6.40
2019-03-01T13:22:09.904Z,6.30
2019-03-01T13:24:41.075Z,6.20
2019-03-01T13:27:14.154Z,6.10
2019-03-01T13:29:45.113Z,6.10
2019-03-01T13:32:15.682Z,6.20
2019-03-01T13:34:49.614Z,6.30
2019-03-01T13:37:20.354Z,6.30
2019-03-01T13:39:50.643Z,6.30
2019-03-01T13:42:21.073Z,6.20
2019-03-01T13:44:51.663Z,6.10
2019-03-01T13:47:22.053Z,6.00
2019-03-01T13:49:52.651Z,5.90
2019-03-01T13:52:23.030Z,5.70
2019-03-01T13:54:53.448Z,5.70
2019-03-01T13:57:23.835Z,5.70
2019-03-01T13:59:54.877Z,5.70
2019-03-01T14:02:25.654Z,5.70
2019-03-01T14:04:56.391Z,5.50
2019-03-01T14:07:26.711Z,5.40
2019-03-01T14:09:57.533Z,5.30
2019-03-01T14:12:27.874Z,5.30
2019-03-01T14:14:59.342Z,5.30
2019-03-01T14:17:31.344Z,5.30
2019-03-01T14:20:02.407Z,5.30
2019-03-01T14:22:34.652Z,5.30
2019-03-01T14:25:06.163Z,5.30
2019-03-01T14:27:36.759Z,5.30
2019-03-01T14:30:10.754Z,5.30
2019-03-01T14:32:41.395Z,5.20
2019-03-01T14:35:12.148Z,5.20
2019-03-01T14:37:42.953Z,5.20
2019-03-01T14:40:14.467Z,5.20
2019-03-01T14:42:47.530Z,5.20
2019-03-01T14:45:19.786Z,5.20
2019-03-01T14:47:50.492Z,5.20
2019-03-01T14:50:22.666Z,5.20
2019-03-01T14:52:58.140Z,5.10
2019-03-01T14:55:30.161Z,5.10
2019-03-01T14:58:26.437Z,5.10
2019-03-01T15:01:14.566Z,5.00
2019-03-01T15:03:45.472Z,5.00
2019-03-01T15:06:19.068Z,5.00
2019-03-01T15:08:49.895Z,4.90
2019-03-01T15:11:22.308Z,4.90
2019-03-01T15:13:54.575Z,4.90
2019-03-01T15:16:25.185Z,4.80
2019-03-01T15:18:55.646Z,4.80
2019-03-01T15:21:26.100Z,4.70
2019-03-01T15:24:00.333Z,4.70
2019-03-01T15:26:29.365Z,4.60
2019-03-01T15:29:00.104Z,4.60
2019-03-01T15:31:30.521Z,4.50
2019-03-01T15:34:01.367Z,4.50
2019-03-01T15:36:31.824Z,4.50
2019-03-01T15:39:02.354Z,4.40
2019-03-01T15:41:39.122Z,4.40
2019-03-01T15:44:09.003Z,4.30
2019-03-01T15:46:39.704Z,4.20
2019-03-01T15:49:11.752Z,4.10
2019-03-01T15:51:43.925Z,4.00
2019-03-01T15:54:14.471Z,3.90
2019-03-01T15:56:44.954Z,3.90
2019-03-01T15:59:15.793Z,3.80
2019-03-01T16:01:47.180Z,3.80
2019-03-01T16:04:18.327Z,3.80
2019-03-01T16:06:48.983Z,3.70
2019-03-01T16:09:21.822Z,3.70
2019-03-01T16:11:53.217Z,3.60
2019-03-01T16:14:24.976Z,3.60
2019-03-01T16:16:55.800Z,3.50
2019-03-01T16:19:26.336Z,3.50
2019-03-01T16:21:57.215Z,3.40
2019-03-01T16:24:28.062Z,3.40
2019-03-01T16:26:58.448Z,3.40
2019-03-01T16:29:29.051Z,3.40
2019-03-01T16:31:59.475Z,3.30
2019-03-01T16:34:31.211Z,3.30
2019-03-01T16:37:03.362Z,3.30
2019-03-01T16:39:33.877Z,3.30
2019-03-01T16:42:04.355Z,3.20
2019-03-01T16:44:35.315Z,3.20
2019-03-01T16:47:06.689Z,3.20
2019-03-01T16:49:38.069Z,3.20
2019-03-01T16:52:08.561Z,3.20
2019-03-01T16:54:39.315Z,3.10
2019-03-01T16:57:11.853Z,3.10
2019-03-01T16:59:43.735Z,3.10
2019-03-01T17:02:15.430Z,3.10
2019-03-01T17:04:45.903Z,3.10
2019-03-01T17:07:16.665Z,3.00
2019-03-01T17:09:50.955Z,3.00
2019-03-01T17:12:19.821Z,3.00
2019-03-01T17:14:50.740Z,3.00
2019-03-01T17:17:21.428Z,3.00
2019-03-01T17:19:52.225Z,3.00
2019-03-01T17:22:23.195Z,3.00
2019-03-01T17:24:54.858Z,2.90
2019-03-01T17:27:25.340Z,3.00
2019-03-01T17:29:55.764Z,3.00
2019-03-01T17:35:14.411Z,2.90
2019-03-01T17:37:45.090Z,2.90
2019-03-01T17:40:17.323Z,2.90
2019-03-01T17:42:48.809Z,2.90
2019-03-01T17:45:20.935Z,2.90
2019-03-01T17:47:52.421Z,2.90
2019-03-01T17:50:23.103Z,2.80
2019-03-01T17:52:54.038Z,2.80
2019-03-01T17:55:25.528Z,2.70
2019-03-01T17:57:56.429Z,2.70
2019-03-01T18:00:37.258Z,2.70
2019-03-01T18:03:08.148Z,2.60
2019-03-01T18:05:40.764Z,2.60
2019-03-01T18:08:11.145Z,2.50
2019-03-01T18:10:42.134Z,2.50
2019-03-01T18:13:14.933Z,2.50
2019-03-01T18:15:48.639Z,2.40
2019-03-01T18:18:17.992Z,2.30
2019-03-01T18:20:48.844Z,2.30
2019-03-01T18:23:19.682Z,2.20
2019-03-01T18:25:50.399Z,2.20
2019-03-01T18:28:21.282Z,2.20
2019-03-01T18:30:56.235Z,2.10
2019-03-01T18:33:24.661Z,2.10
2019-03-01T18:35:56.681Z,2.00
2019-03-01T18:38:31.300Z,1.90
2019-03-01T18:41:01.426Z,1.90
2019-03-01T18:43:32.000Z,1.80
2019-03-01T18:46:03.134Z,1.70
2019-03-01T18:48:35.059Z,1.70
2019-03-01T18:51:06.737Z,1.70
2019-03-01T18:53:38.059Z,1.70
2019-03-01T18:56:08.882Z,1.60
2019-03-01T18:58:39.314Z,1.60
2019-03-01T19:01:11.783Z,1.60
2019-03-01T19:03:42.639Z,1.60
2019-03-01T19:06:16.175Z,1.60
2019-03-01T19:08:45.654Z,1.60
2019-03-01T19:11:16.250Z,1.60
2019-03-01T19:13:46.805Z,1.60
2019-03-01T19:16:17.570Z,1.60
2019-03-01T19:18:50.972Z,1.60
2019-03-01T19:21:20.232Z,1.50
2019-03-01T19:23:50.827Z,1.50
2019-03-01T19:26:21.174Z,1.40
2019-03-01T19:28:51.627Z,1.40
2019-03-01T19:31:24.572Z,1.40
2019-03-01T19:33:54.170Z,1.40
2019-03-01T19:36:25.130Z,1.30
2019-03-01T19:38:56.787Z,1.30
2019-03-01T19:41:28.438Z,1.20
2019-03-01T19:44:00.062Z,1.10
2019-03-01T19:46:30.771Z,1.10
2019-03-01T19:49:04.114Z,0.90
2019-03-01T19:51:37.417Z,0.90
2019-03-01T19:54:08.387Z,0.80
2019-03-01T19:56:40.089Z,0.70
2019-03-01T19:59:10.760Z,0.70
2019-03-01T20:01:41.352Z,0.60
2019-03-01T20:04:11.808Z,0.60
2019-03-01T20:06:43.568Z,0.50
2019-03-01T20:09:14.712Z,0.50
2019-03-01T20:11:45.179Z,0.40
2019-03-01T20:14:16.923Z,0.30
2019-03-01T20:16:47.592Z,0.30
2019-03-01T20:19:20.835Z,0.20
2019-03-01T20:21:50.086Z,0.20
2019-03-01T20:24:20.591Z,0.10
2019-03-01T20:26:52.594Z,0.10
2019-03-01T20:29:23.124Z,0.00
2019-03-01T20:31:53.595Z,0.00
2019-03-01T20:34:24.029Z,0.00
2019-03-01T20:36:54.590Z,-0.10
2019-03-01T20:39:25.504Z,-0.10
2019-03-01T20:41:56.212Z,0.00
2019-03-01T20:44:26.668Z,0.00
2019-03-01T20:46:57.556Z,0.00
2019-03-01T20:49:29.072Z,0.00
2019-03-01T20:52:02.247Z,0.10
2019-03-01T20:54:31.863Z,0.10
2019-03-01T20:57:02.418Z,0.10
2019-03-01T20:59:32.894Z,0.10
2019-03-01T21:02:03.612Z,0.20
2019-03-01T21:04:36.666Z,0.10
2019-03-01T21:07:06.139Z,0.20
2019-03-01T21:09:37.756Z,0.20
2019-03-01T21:12:09.178Z,0.20
2019-03-01T21:14:39.933Z,0.20
2019-03-01T21:17:10.309Z,0.10
2019-03-01T21:19:43.463Z,0.10
2019-03-01T21:22:12.933Z,0.10
2019-03-01T21:24:43.428Z,0.00
2019-03-01T21:27:15.068Z,0.00
2019-03-01T21:29:47.557Z,-0.10
2019-03-01T21:32:17.994Z,-0.20
2019-03-01T21:34:48.478Z,-0.30
2019-03-01T21:37:19.159Z,-0.30
2019-03-01T21:39:50.329Z,-0.40
2019-03-01T21:42:21.249Z,-0.40
2019-03-01T21:44:56.796Z,-0.50
2019-03-01T21:47:27.246Z,-0.60
2019-03-01T21:49:59.943Z,-0.60
2019-03-01T21:52:30.432Z,-0.60
2019-03-01T21:55:01.056Z,-0.70
2019-03-01T21:57:32.312Z,-0.80
2019-03-01T22:00:02.991Z,-0.80
2019-03-01T22:02:35.770Z,-0.90
2019-03-01T22:05:10.290Z,-0.90
2019-03-01T22:07:40.066Z,-0.90
2019-03-01T22:10:11.535Z,-1.00
2019-03-01T22:12:42.096Z,-1.00
2019-03-01T22:15:15.210Z,-1.00
2019-03-01T22:17:48.709Z,-1.10
2019-03-01T22:20:17.961Z,-1.10
2019-03-01T22:22:48.490Z,-1.10
2019-03-01T22:25:19.044Z,-1.10
2019-03-01T22:27:50.445Z,-1.00
2019-03-01T22:30:26.482Z,-1.00
2019-03-01T22:32:57.098Z,-1.00
2019-03-01T22:35:27.773Z,-0.90
2019-03-01T22:38:00.995Z,-0.90
2019-03-01T22:40:30.608Z,-0.90
2019-03-01T22:43:01.188Z,-0.80
2019-03-01T22:45:32.040Z,-0.80
2019-03-01T22:48:02.550Z,-0.80
2019-03-01T22:50:34.118Z,-0.80
2019-03-01T22:53:06.573Z,-0.80
2019-03-01T22:55:37.631Z,-0.70
2019-03-01T22:58:08.382Z,-0.70
2019-03-01T23:01:29.554Z,-0.70
2019-03-01T23:04:03.277Z,-0.70
2019-03-01T23:06:34.029Z,-0.70
2019-03-01T23:09:10.254Z,-0.70
2019-03-01T23:11:40.402Z,-0.70
2019-03-01T23:14:10.835Z,-0.70
2019-03-01T23:16:41.784Z,-0.80
2019-03-01T23:19:12.719Z,-0.80
2019-03-01T23:21:44.596Z,-0.90
2019-03-01T23:24:15.423Z,-0.90
2019-03-01T23:26:46.357Z,-0.90
2019-03-01T23:29:18.818Z,-0.90
2019-03-01T23:31:49.839Z,-0.90
2019-03-01T23:34:20.300Z,-0.90
2019-03-01T23:36:50.793Z,-0.90
2019-03-01T23:39:21.631Z,-0.90
2019-03-01T23:41:53.769Z,-0.90
2019-03-01T23:44:25.763Z,-0.90
2019-03-01T23:46:59.533Z,-0.90
2019-03-01T23:49:28.668Z,-0.90
2019-03-01T23:51:59.236Z,-0.90
2019-03-01T23:54:29.704Z,-0.80
2019-03-01T23:57:01.912Z,-0.80
2019-03-01T23:59:32.503Z,-0.80
